Time,TemperatureF,DewpointF,PressureIn,WindDirection,WindDirectionDegrees,WindSpeedMPH,WindSpeedGustMPH,Humidity,HourlyPrecipIn,Conditions,Clouds,dailyrainin,SoftwareType,DateUTC
2013-01-08 00:05:00,46.6,42.3,30.13,SSE,155,2.0,2.0,85,0.00,,,0.01,Wunderground v.1.15,2013-01-08 08:05:00,
2013-01-08 00:15:00,46.5,42.5,30.12,SSW,213,2.0,2.0,86,0.00,,,0.00,Wunderground v.1.15,2013-01-08 08:15:00,
2013-01-08 00:25:00,46.5,42.5,30.12,WNW,293,1.0,2.0,86,0.00,,,0.00,Wunderground v.1.15,2013-01-08 08:25:00,
2013-01-08 00:35:00,46.5,42.5,30.12,SSW,196,1.0,5.0,86,0.00,,,0.00,Wunderground v.1.15,2013-01-08 08:35:00,
2013-01-08 00:45:00,46.5,42.5,30.12,SSW,193,2.0,7.0,86,0.00,,,0.00,Wunderground v.1.15,2013-01-08 08:45:00,
2013-01-08 00:55:00,46.5,42.5,30.13,South,185,2.0,7.0,86,0.00,,,0.00,Wunderground v.1.15,2013-01-08 08:55:00,
2013-01-08 01:05:00,46.5,42.5,30.13,NW,310,1.0,2.0,86,0.00,,,0.00,Wunderground v.1.15,2013-01-08 09:05:00,
2013-01-08 01:15:00,46.5,42.5,30.12,South,170,2.0,2.0,86,0.00,,,0.00,Wunderground v.1.15,2013-01-08 09:15:00,
2013-01-08 01:25:00,46.5,42.8,30.12,SSW,200,1.0,2.0,87,0.00,,,0.00,Wunderground v.1.15,2013-01-08 09:25:00,
2013-01-08 01:35:00,46.4,42.4,30.12,South,191,2.0,3.0,86,0.00,,,0.00,Wunderground v.1.15,2013-01-08 09:35:00,
2013-01-08 01:45:00,46.4,42.7,30.12,SSE,162,1.0,7.0,87,0.00,,,0.00,Wunderground v.1.15,2013-01-08 09:45:00,
2013-01-08 01:55:00,46.4,42.7,30.12,NNE,22,1.0,7.0,87,0.00,,,0.00,Wunderground v.1.15,2013-01-08 09:55:00,
2013-01-08 02:00:00,46.4,42.4,30.12,NW,306,2.0,2.0,86,0.00,,,0.00,Wunderground v.1.15,2013-01-08 10:00:00,
2013-01-08 02:10:00,46.4,42.4,30.11,North,358,1.0,1.0,86,0.00,,,0.00,Wunderground v.1.15,2013-01-08 10:10:00,
2013-01-08 02:15:00,46.4,42.4,30.11,SSE,151,2.0,2.0,86,0.00,,,0.00,Wunderground v.1.15,2013-01-08 10:15:00,
2013-01-08 02:25:00,46.4,42.7,30.12,South,175,2.0,2.0,87,0.00,,,0.00,Wunderground v.1.15,2013-01-08 10:25:00,
2013-01-08 02:35:00,46.4,42.7,30.11,SE,141,2.0,7.0,87,0.00,,,0.00,Wunderground v.1.15,2013-01-08 10:35:00,
2013-01-08 02:45:00,46.4,42.7,30.12,SSE,156,1.0,7.0,87,0.00,,,0.00,Wunderground v.1.15,2013-01-08 10:45:00,
2013-01-08 02:55:00,46.5,42.8,30.12,SSE,154,2.0,7.0,87,0.00,,,0.00,Wunderground v.1.15,2013-01-08 10:55:00,
2013-01-08 03:05:00,46.5,43.1,30.12,East,87,1.0,1.0,88,0.00,,,0.00,Wunderground v.1.15,2013-01-08 11:05:00,
2013-01-08 03:15:00,46.4,43.0,30.12,South,175,1.0,1.0,88,0.00,,,0.00,Wunderground v.1.15,2013-01-08 11:15:00,
2013-01-08 03:25:00,46.3,42.6,30.11,SSW,207,1.0,1.0,87,0.00,,,0.00,Wunderground v.1.15,2013-01-08 11:25:00,
2013-01-08 03:35:00,46.3,42.6,30.11,SSW,206,1.0,8.0,87,0.00,,,0.00,Wunderground v.1.15,2013-01-08 11:35:00,
2013-01-08 03:45:00,46.2,42.5,30.10,SE,134,1.0,8.0,87,0.00,,,0.00,Wunderground v.1.15,2013-01-08 11:45:00,
2013-01-08 03:55:00,46.2,42.5,30.10,SSW,197,0.0,8.0,87,0.00,,,0.00,Wunderground v.1.15,2013-01-08 11:55:00,
2013-01-08 04:05:00,46.2,42.5,30.10,South,191,1.0,1.0,87,0.00,,,0.00,Wunderground v.1.15,2013-01-08 12:05:00,
2013-01-08 04:15:00,46.3,42.6,30.10,SSE,153,1.0,1.0,87,0.00,,,0.00,Wunderground v.1.15,2013-01-08 12:15:00,
2013-01-08 04:20:00,46.3,42.6,30.10,SSW,193,1.0,1.0,87,0.00,,,0.00,Wunderground v.1.15,2013-01-08 12:20:00,
2013-01-08 04:25:00,46.3,42.6,30.10,SE,128,1.0,1.0,87,0.00,,,0.00,Wunderground v.1.15,2013-01-08 12:25:00,
2013-01-08 04:35:00,46.4,42.7,30.10,SW,216,1.0,7.0,87,0.00,,,0.00,Wunderground v.1.15,2013-01-08 12:35:00,
2013-01-08 04:40:00,46.4,42.7,30.09,South,185,1.0,1.0,87,0.00,,,0.00,Wunderground v.1.15,2013-01-08 12:40:00,
2013-01-08 04:45:00,46.4,42.7,30.09,NNW,340,0.0,7.0,87,0.00,,,0.00,Wunderground v.1.15,2013-01-08 12:45:00,
2013-01-08 04:55:00,46.4,42.7,30.09,South,185,0.0,7.0,87,0.00,,,0.00,Wunderground v.1.15,2013-01-08 12:55:00,
2013-01-08 05:00:00,46.3,42.6,30.09,South,170,0.0,0.0,87,0.00,,,0.00,Wunderground v.1.15,2013-01-08 13:00:00,
2013-01-08 05:10:00,46.3,42.9,30.09,SSW,201,1.0,1.0,88,0.00,,,0.00,Wunderground v.1.15,2013-01-08 13:10:00,
2013-01-08 05:15:00,46.3,42.9,30.08,WNW,292,1.0,1.0,88,0.00,,,0.00,Wunderground v.1.15,2013-01-08 13:15:00,
2013-01-08 05:25:00,46.3,42.9,30.08,SSW,200,1.0,1.0,88,0.00,,,0.00,Wunderground v.1.15,2013-01-08 13:25:00,
2013-01-08 05:35:00,46.2,43.1,30.08,South,180,1.0,6.0,89,0.00,,,0.00,Wunderground v.1.15,2013-01-08 13:35:00,
2013-01-08 05:40:00,46.2,42.8,30.08,SSE,157,1.0,1.0,88,0.00,,,0.00,Wunderground v.1.15,2013-01-08 13:40:00,
2013-01-08 05:45:00,46.1,42.7,30.08,SSW,208,1.0,6.0,88,0.00,,,0.00,Wunderground v.1.15,2013-01-08 13:45:00,
2013-01-08 05:55:00,46.0,42.9,30.08,North,349,0.0,6.0,89,0.00,,,0.00,Wunderground v.1.15,2013-01-08 13:55:00,
2013-01-08 06:00:00,45.8,42.7,30.08,South,180,1.0,4.0,89,0.00,,,0.00,Wunderground v.1.15,2013-01-08 14:00:00,
2013-01-08 06:05:00,45.6,42.5,30.07,SSE,160,1.0,4.0,89,0.00,,,0.00,Wunderground v.1.15,2013-01-08 14:05:00,
2013-01-08 06:15:00,45.4,42.6,30.07,South,180,0.0,0.0,90,0.00,,,0.00,Wunderground v.1.15,2013-01-08 14:15:00,
2013-01-08 06:25:00,45.2,42.4,30.06,SSE,163,0.0,0.0,90,0.00,,,0.00,Wunderground v.1.15,2013-01-08 14:25:00,
2013-01-08 06:35:00,45.0,42.2,30.05,SSE,147,0.0,5.0,90,0.00,,,0.01,Wunderground v.1.15,2013-01-08 14:35:00,
2013-01-08 06:45:00,44.8,42.0,30.04,ESE,112,0.0,5.0,90,0.00,,,0.01,Wunderground v.1.15,2013-01-08 14:45:00,
2013-01-08 06:55:00,44.5,42.0,30.03,SSE,156,0.0,5.0,91,0.00,,,0.01,Wunderground v.1.15,2013-01-08 14:55:00,
2013-01-08 07:05:00,44.3,41.8,30.03,ESE,104,0.0,1.0,91,0.00,,,0.02,Wunderground v.1.15,2013-01-08 15:05:00,
2013-01-08 07:15:00,44.0,41.5,30.03,South,191,0.0,0.0,91,0.00,,,0.02,Wunderground v.1.15,2013-01-08 15:15:00,
2013-01-08 07:25:00,43.7,41.5,30.03,South,175,0.0,0.0,92,0.05,,,0.03,Wunderground v.1.15,2013-01-08 15:25:00,
2013-01-08 07:35:00,43.6,41.7,30.03,South,175,0.0,3.0,93,0.06,,,0.04,Wunderground v.1.15,2013-01-08 15:35:00,
2013-01-08 07:45:00,43.4,41.8,30.02,South,175,0.0,3.0,94,0.06,,,0.05,Wunderground v.1.15,2013-01-08 15:45:00,
2013-01-08 07:55:00,43.2,41.6,30.02,South,175,0.0,3.0,94,0.00,,,0.05,Wunderground v.1.15,2013-01-08 15:55:00,
2013-01-08 08:05:00,43.1,41.5,30.01,East,79,0.0,0.0,94,0.00,,,0.06,Wunderground v.1.15,2013-01-08 16:05:00,
2013-01-08 08:15:00,42.9,41.6,30.01,East,97,0.0,0.0,95,0.05,,,0.07,Wunderground v.1.15,2013-01-08 16:15:00,
2013-01-08 08:20:00,42.9,41.6,30.01,East,97,0.0,0.0,95,0.05,,,0.07,Wunderground v.1.15,2013-01-08 16:20:00,
2013-01-08 08:25:00,42.9,41.6,30.01,East,99,0.0,0.0,95,0.05,,,0.08,Wunderground v.1.15,2013-01-08 16:25:00,
2013-01-08 08:35:00,42.8,41.5,30.01,East,85,0.0,1.0,95,0.08,,,0.09,Wunderground v.1.15,2013-01-08 16:35:00,
2013-01-08 08:45:00,42.8,41.5,30.01,East,89,0.0,1.0,95,0.05,,,0.10,Wunderground v.1.15,2013-01-08 16:45:00,
2013-01-08 08:55:00,42.8,41.5,30.01,East,94,0.0,1.0,95,0.06,,,0.11,Wunderground v.1.15,2013-01-08 16:55:00,
2013-01-08 09:05:00,42.5,41.2,30.00,South,171,0.0,0.0,95,0.05,,,0.12,Wunderground v.1.15,2013-01-08 17:05:00,
2013-01-08 09:15:00,42.4,41.1,30.00,ESE,116,0.0,0.0,95,0.08,,,0.13,Wunderground v.1.15,2013-01-08 17:15:00,
2013-01-08 09:25:00,42.3,41.0,29.99,ESE,112,0.0,0.0,95,0.06,,,0.14,Wunderground v.1.15,2013-01-08 17:25:00,
2013-01-08 09:35:00,42.5,41.4,29.98,NE,55,0.0,2.0,96,0.05,,,0.15,Wunderground v.1.15,2013-01-08 17:35:00,
2013-01-08 09:45:00,42.6,41.5,29.98,ESE,120,0.0,2.0,96,0.04,,,0.15,Wunderground v.1.15,2013-01-08 17:45:00,
2013-01-08 09:55:00,42.7,41.6,29.97,ESE,107,0.0,2.0,96,0.00,,,0.15,Wunderground v.1.15,2013-01-08 17:55:00,
2013-01-08 10:05:00,42.8,41.7,29.96,NNE,28,0.0,0.0,96,0.00,,,0.15,Wunderground v.1.15,2013-01-08 18:05:00,
2013-01-08 10:15:00,42.8,41.7,29.95,WSW,258,0.0,0.0,96,0.00,,,0.16,Wunderground v.1.15,2013-01-08 18:15:00,
2013-01-08 10:25:00,43.0,41.9,29.95,SSW,193,0.0,0.0,96,0.00,,,0.16,Wunderground v.1.15,2013-01-08 18:25:00,
2013-01-08 10:35:00,43.0,41.9,29.94,ENE,70,0.0,3.0,96,0.00,,,0.16,Wunderground v.1.15,2013-01-08 18:35:00,
2013-01-08 10:45:00,42.8,41.7,29.93,SSW,199,1.0,3.0,96,0.00,,,0.17,Wunderground v.1.15,2013-01-08 18:45:00,
2013-01-08 10:55:00,42.8,41.7,29.92,SE,136,0.0,3.0,96,0.00,,,0.17,Wunderground v.1.15,2013-01-08 18:55:00,
2013-01-08 11:05:00,42.9,41.8,29.91,SSE,159,1.0,1.0,96,0.00,,,0.17,Wunderground v.1.15,2013-01-08 19:05:00,
2013-01-08 11:15:00,43.0,42.2,29.91,SSE,156,1.0,1.0,97,0.00,,,0.17,Wunderground v.1.15,2013-01-08 19:15:00,
2013-01-08 11:25:00,43.0,42.2,29.90,South,185,1.0,5.0,97,0.00,,,0.17,Wunderground v.1.15,2013-01-08 19:25:00,
2013-01-08 11:35:00,43.2,42.4,29.90,SW,215,2.0,3.0,97,0.00,,,0.17,Wunderground v.1.15,2013-01-08 19:35:00,
2013-01-08 11:45:00,43.3,42.5,29.90,SSE,164,3.0,4.0,97,0.00,,,0.17,Wunderground v.1.15,2013-01-08 19:45:00,
2013-01-08 11:55:00,43.7,42.9,29.89,SW,214,1.0,3.0,97,0.00,,,0.17,Wunderground v.1.15,2013-01-08 19:55:00,
2013-01-08 12:05:00,44.1,43.3,29.88,SSE,151,1.0,2.0,97,0.00,,,0.18,Wunderground v.1.15,2013-01-08 20:05:00,
2013-01-08 12:10:00,44.2,43.4,29.88,South,185,1.0,1.0,97,0.00,,,0.18,Wunderground v.1.15,2013-01-08 20:10:00,
2013-01-08 12:15:00,44.2,43.4,29.88,South,185,1.0,1.0,97,0.00,,,0.18,Wunderground v.1.15,2013-01-08 20:15:00,
2013-01-08 12:25:00,44.4,43.6,29.88,South,175,1.0,4.0,97,0.00,,,0.18,Wunderground v.1.15,2013-01-08 20:25:00,
2013-01-08 12:30:00,44.4,43.6,29.87,ESE,114,1.0,1.0,97,0.00,,,0.18,Wunderground v.1.15,2013-01-08 20:30:00,
2013-01-08 12:35:00,44.5,43.7,29.86,South,170,2.0,2.0,97,0.00,,,0.18,Wunderground v.1.15,2013-01-08 20:35:00,
2013-01-08 12:45:00,44.4,43.6,29.87,SSW,194,2.0,6.0,97,0.00,,,0.19,Wunderground v.1.15,2013-01-08 20:45:00,
2013-01-08 12:55:00,44.5,43.7,29.86,South,185,1.0,6.0,97,0.00,,,0.19,Wunderground v.1.15,2013-01-08 20:55:00,
2013-01-08 13:05:00,44.6,43.8,29.86,SW,216,2.0,2.0,97,0.00,,,0.20,Wunderground v.1.15,2013-01-08 21:05:00,
2013-01-08 13:15:00,45.0,44.2,29.85,SW,216,3.0,3.0,97,0.00,,,0.20,Wunderground v.1.15,2013-01-08 21:15:00,
2013-01-08 13:25:00,45.3,44.5,29.84,SSW,201,2.0,2.0,97,0.00,,,0.21,Wunderground v.1.15,2013-01-08 21:25:00,
2013-01-08 13:35:00,45.7,44.9,29.83,West,270,2.0,6.0,97,0.00,,,0.21,Wunderground v.1.15,2013-01-08 21:35:00,
2013-01-08 13:45:00,46.1,45.6,29.83,SSE,165,2.0,6.0,98,0.00,,,0.22,Wunderground v.1.15,2013-01-08 21:45:00,
2013-01-08 13:55:00,46.6,45.8,29.83,South,175,2.0,6.0,97,0.00,,,0.22,Wunderground v.1.15,2013-01-08 21:55:00,
2013-01-08 14:05:00,46.9,46.4,29.83,South,170,1.0,2.0,98,0.00,,,0.22,Wunderground v.1.15,2013-01-08 22:05:00,
2013-01-08 14:15:00,47.2,46.4,29.82,SSW,198,1.0,1.0,97,0.00,,,0.23,Wunderground v.1.15,2013-01-08 22:15:00,
2013-01-08 14:25:00,47.4,46.9,29.82,NNW,344,1.0,1.0,98,0.08,,,0.24,Wunderground v.1.15,2013-01-08 22:25:00,
2013-01-08 14:35:00,47.9,47.4,29.82,South,189,1.0,7.0,98,0.11,,,0.26,Wunderground v.1.15,2013-01-08 22:35:00,
2013-01-08 14:45:00,48.6,48.1,29.82,SE,124,1.0,7.0,98,0.04,,,0.26,Wunderground v.1.15,2013-01-08 22:45:00,
2013-01-08 14:55:00,49.1,48.6,29.83,South,180,2.0,6.0,98,0.00,,,0.27,Wunderground v.1.15,2013-01-08 22:55:00,
2013-01-08 15:05:00,49.2,48.7,29.82,SSE,164,2.0,2.0,98,0.08,,,0.29,Wunderground v.1.15,2013-01-08 23:05:00,
2013-01-08 15:15:00,49.3,48.8,29.81,SSW,197,2.0,4.0,98,0.06,,,0.29,Wunderground v.1.15,2013-01-08 23:15:00,
2013-01-08 15:25:00,49.4,48.9,29.81,East,85,2.0,4.0,98,0.04,,,0.30,Wunderground v.1.15,2013-01-08 23:25:00,
2013-01-08 15:35:00,49.4,48.9,29.80,South,175,2.0,5.0,98,0.04,,,0.30,Wunderground v.1.15,2013-01-08 23:35:00,
2013-01-08 15:45:00,49.5,48.7,29.80,South,180,2.0,5.0,97,0.00,,,0.30,Wunderground v.1.15,2013-01-08 23:45:00,
2013-01-08 15:55:00,49.7,48.9,29.78,South,185,3.0,5.0,97,0.00,,,0.30,Wunderground v.1.15,2013-01-08 23:55:00,
2013-01-08 16:05:00,49.9,49.1,29.78,SSE,165,3.0,3.0,97,0.00,,,0.30,Wunderground v.1.15,2013-01-09 00:05:00,
2013-01-08 16:15:00,50.2,49.1,29.77,SSW,204,5.0,5.0,96,0.00,,,0.30,Wunderground v.1.15,2013-01-09 00:15:00,
2013-01-08 16:25:00,50.6,49.2,29.76,SW,223,5.0,5.0,95,0.00,,,0.30,Wunderground v.1.15,2013-01-09 00:25:00,
2013-01-08 16:30:00,50.8,49.1,29.76,NNW,330,5.0,6.0,94,0.00,,,0.30,Wunderground v.1.15,2013-01-09 00:30:00,
2013-01-08 16:35:00,51.0,49.0,29.76,South,185,6.0,9.0,93,0.00,,,0.30,Wunderground v.1.15,2013-01-09 00:35:00,
2013-01-08 16:45:00,51.2,49.2,29.76,SSW,208,6.0,11.0,93,0.00,,,0.30,Wunderground v.1.15,2013-01-09 00:45:00,
2013-01-08 16:55:00,51.4,49.2,29.76,SSE,162,7.0,7.0,92,0.00,,,0.30,Wunderground v.1.15,2013-01-09 00:55:00,
2013-01-08 17:05:00,51.4,49.2,29.75,SSW,213,6.0,7.0,92,0.00,,,0.30,Wunderground v.1.15,2013-01-09 01:05:00,
2013-01-08 17:15:00,51.1,49.1,29.75,South,180,6.0,7.0,93,0.00,,,0.31,Wunderground v.1.15,2013-01-09 01:15:00,
2013-01-08 17:25:00,51.0,49.0,29.75,SW,221,6.0,8.0,93,0.00,,,0.31,Wunderground v.1.15,2013-01-09 01:25:00,
2013-01-08 17:35:00,51.1,49.1,29.75,SSE,163,6.0,6.0,93,0.00,,,0.32,Wunderground v.1.15,2013-01-09 01:35:00,
2013-01-08 17:45:00,51.1,49.1,29.74,SE,146,5.0,16.0,93,0.00,,,0.32,Wunderground v.1.15,2013-01-09 01:45:00,
2013-01-08 17:55:00,51.1,49.1,29.74,NNW,330,6.0,16.0,93,0.00,,,0.32,Wunderground v.1.15,2013-01-09 01:55:00,
2013-01-08 18:05:00,51.1,49.1,29.74,South,189,5.0,6.0,93,0.00,,,0.32,Wunderground v.1.15,2013-01-09 02:05:00,
2013-01-08 18:15:00,51.2,49.2,29.74,SW,216,6.0,6.0,93,0.00,,,0.32,Wunderground v.1.15,2013-01-09 02:15:00,
2013-01-08 18:25:00,51.0,49.0,29.73,South,185,5.0,6.0,93,0.00,,,0.33,Wunderground v.1.15,2013-01-09 02:25:00,
2013-01-08 18:35:00,50.9,48.9,29.73,South,180,5.0,9.0,93,0.00,,,0.33,Wunderground v.1.15,2013-01-09 02:35:00,
2013-01-08 18:45:00,51.1,49.1,29.72,SSE,151,6.0,6.0,93,0.00,,,0.33,Wunderground v.1.15,2013-01-09 02:45:00,
2013-01-08 18:55:00,51.1,48.9,29.72,SSW,209,5.0,15.0,92,0.00,,,0.33,Wunderground v.1.15,2013-01-09 02:55:00,
2013-01-08 19:05:00,51.2,49.0,29.71,SSW,192,5.0,5.0,92,0.00,,,0.33,Wunderground v.1.15,2013-01-09 03:05:00,
2013-01-08 19:10:00,51.2,49.0,29.72,SW,232,5.0,5.0,92,0.00,,,0.33,Wunderground v.1.15,2013-01-09 03:10:00,
2013-01-08 19:15:00,51.3,48.8,29.72,South,175,6.0,7.0,91,0.00,,,0.33,Wunderground v.1.15,2013-01-09 03:15:00,
2013-01-08 19:25:00,51.4,48.9,29.72,SW,218,5.0,6.0,91,0.00,,,0.33,Wunderground v.1.15,2013-01-09 03:25:00,
2013-01-08 19:30:00,51.5,49.0,29.72,ESE,107,5.0,5.0,91,0.00,,,0.33,Wunderground v.1.15,2013-01-09 03:30:00,
2013-01-08 19:35:00,51.4,48.9,29.71,ENE,64,5.0,6.0,91,0.00,,,0.33,Wunderground v.1.15,2013-01-09 03:35:00,
2013-01-08 19:45:00,51.4,48.9,29.71,SSE,168,5.0,13.0,91,0.00,,,0.33,Wunderground v.1.15,2013-01-09 03:45:00,
2013-01-08 19:55:00,51.4,48.9,29.72,SSE,158,4.0,13.0,91,0.00,,,0.33,Wunderground v.1.15,2013-01-09 03:55:00,
2013-01-08 20:05:00,51.4,48.9,29.72,South,185,4.0,7.0,91,0.00,,,0.33,Wunderground v.1.15,2013-01-09 04:05:00,
2013-01-08 20:15:00,51.4,48.9,29.72,SSW,213,5.0,5.0,91,0.00,,,0.33,Wunderground v.1.15,2013-01-09 04:15:00,
2013-01-08 20:25:00,51.1,48.9,29.72,NE,55,4.0,5.0,92,0.00,,,0.33,Wunderground v.1.15,2013-01-09 04:25:00,
2013-01-08 20:35:00,50.9,48.7,29.71,South,185,5.0,14.0,92,0.00,,,0.33,Wunderground v.1.15,2013-01-09 04:35:00,
2013-01-08 20:45:00,50.8,48.8,29.70,South,170,6.0,14.0,93,0.00,,,0.33,Wunderground v.1.15,2013-01-09 04:45:00,
2013-01-08 20:55:00,50.8,48.6,29.70,SSE,166,5.0,14.0,92,0.00,,,0.33,Wunderground v.1.15,2013-01-09 04:55:00,
2013-01-08 21:00:00,50.8,48.8,29.70,NW,320,5.0,5.0,93,0.00,,,0.33,Wunderground v.1.15,2013-01-09 05:00:00,
2013-01-08 21:05:00,50.7,48.7,29.70,SSW,212,6.0,11.0,93,0.00,,,0.34,Wunderground v.1.15,2013-01-09 05:05:00,
2013-01-08 21:15:00,50.6,48.7,29.70,South,189,5.0,7.0,93,0.00,,,0.34,Wunderground v.1.15,2013-01-09 05:15:00,
2013-01-08 21:20:00,50.6,48.7,29.70,SW,222,5.0,5.0,93,0.04,,,0.35,Wunderground v.1.15,2013-01-09 05:20:00,
2013-01-08 21:25:00,50.5,48.6,29.70,East,99,6.0,6.0,93,0.04,,,0.35,Wunderground v.1.15,2013-01-09 05:25:00,
2013-01-08 21:35:00,50.4,48.7,29.70,NNE,17,5.0,18.0,94,0.04,,,0.36,Wunderground v.1.15,2013-01-09 05:35:00,
2013-01-08 21:45:00,50.4,48.7,29.70,SW,215,6.0,18.0,94,0.07,,,0.37,Wunderground v.1.15,2013-01-09 05:45:00,
2013-01-08 21:55:00,50.4,48.7,29.70,NE,51,6.0,18.0,94,0.04,,,0.37,Wunderground v.1.15,2013-01-09 05:55:00,
2013-01-08 22:05:00,50.4,48.7,29.70,SSE,147,6.0,11.0,94,0.07,,,0.39,Wunderground v.1.15,2013-01-09 06:05:00,
2013-01-08 22:15:00,50.3,48.6,29.71,SSE,166,6.0,6.0,94,0.07,,,0.40,Wunderground v.1.15,2013-01-09 06:15:00,
2013-01-08 22:25:00,50.3,48.6,29.70,SSE,151,5.0,6.0,94,0.10,,,0.42,Wunderground v.1.15,2013-01-09 06:25:00,
2013-01-08 22:35:00,50.2,48.5,29.70,SW,218,6.0,17.0,94,0.12,,,0.44,Wunderground v.1.15,2013-01-09 06:35:00,
2013-01-08 22:45:00,50.2,48.8,29.70,South,175,5.0,6.0,95,0.10,,,0.46,Wunderground v.1.15,2013-01-09 06:45:00,
2013-01-08 22:55:00,50.1,48.7,29.70,SSW,203,5.0,17.0,95,0.09,,,0.47,Wunderground v.1.15,2013-01-09 06:55:00,
2013-01-08 23:05:00,50.1,48.7,29.70,SE,132,6.0,6.0,95,0.06,,,0.48,Wunderground v.1.15,2013-01-09 07:05:00,
2013-01-08 23:15:00,50.1,48.7,29.70,SW,221,5.0,10.0,95,0.10,,,0.50,Wunderground v.1.15,2013-01-09 07:15:00,
2013-01-08 23:25:00,50.1,48.7,29.70,SE,140,5.0,7.0,95,0.10,,,0.51,Wunderground v.1.15,2013-01-09 07:25:00,
2013-01-08 23:35:00,50.0,48.6,29.70,SSE,156,5.0,16.0,95,0.07,,,0.52,Wunderground v.1.15,2013-01-09 07:35:00,
2013-01-08 23:45:00,50.0,48.6,29.70,SW,218,5.0,16.0,95,0.08,,,0.54,Wunderground v.1.15,2013-01-09 07:45:00,
2013-01-08 23:55:00,49.9,48.5,29.70,South,175,4.0,16.0,95,0.09,,,0.55,Wunderground v.1.15,2013-01-09 07:55:00,